sensor_id;sensor_type;location;lat;lon;timestamp;P1;durP1;ratioP1;P2;durP2;ratioP2
38083;SDS011;23894;51.466;7.444;2023-07-08T00:00:58;6.20;;;2.88;;
38083;SDS011;23894;51.466;7.444;2023-07-08T00:04:59;6.20;;;2.95;;
38083;SDS011;23894;51.466;7.444;2023-07-08T00:09:01;7.75;;;2.50;;
38083;SDS011;23894;51.466;7.444;2023-07-08T00:13:03;7.78;;;2.97;;
38083;SDS011;23894;51.466;7.444;2023-07-08T00:17:09;6.63;;;2.88;;
38083;SDS011;23894;51.466;7.444;2023-07-08T00:19:11;7.60;;;3.28;;
38083;SDS011;23894;51.466;7.444;2023-07-08T00:23:15;5.43;;;2.67;;
38083;SDS011;23894;51.466;7.444;2023-07-08T00:25:16;5.95;;;2.85;;
38083;SDS011;23894;51.466;7.444;2023-07-08T00:27:19;5.53;;;2.58;;
38083;SDS011;23894;51.466;7.444;2023-07-08T00:31:23;6.45;;;3.03;;
38083;SDS011;23894;51.466;7.444;2023-07-08T00:33:25;7.40;;;2.55;;
38083;SDS011;23894;51.466;7.444;2023-07-08T00:37:27;6.60;;;2.60;;
38083;SDS011;23894;51.466;7.444;2023-07-08T00:39:29;5.75;;;2.83;;
38083;SDS011;23894;51.466;7.444;2023-07-08T00:43:35;5.15;;;2.33;;
38083;SDS011;23894;51.466;7.444;2023-07-08T00:45:39;5.50;;;2.70;;
38083;SDS011;23894;51.466;7.444;2023-07-08T00:47:41;4.97;;;2.38;;
38083;SDS011;23894;51.466;7.444;2023-07-08T00:50:02;6.25;;;2.78;;
38083;SDS011;23894;51.466;7.444;2023-07-08T00:52:25;5.20;;;2.53;;
38083;SDS011;23894;51.466;7.444;2023-07-08T00:54:26;4.40;;;2.58;;
38083;SDS011;23894;51.466;7.444;2023-07-08T00:58:31;4.93;;;2.50;;
38083;SDS011;23894;51.466;7.444;2023-07-08T01:00:33;5.60;;;2.88;;
38083;SDS011;23894;51.466;7.444;2023-07-08T01:06:47;5.07;;;2.75;;
38083;SDS011;23894;51.466;7.444;2023-07-08T01:10:59;7.82;;;2.70;;
38083;SDS011;23894;51.466;7.444;2023-07-08T01:13:01;6.38;;;3.10;;
38083;SDS011;23894;51.466;7.444;2023-07-08T01:15:05;7.35;;;2.70;;
38083;SDS011;23894;51.466;7.444;2023-07-08T01:17:07;6.63;;;3.10;;
38083;SDS011;23894;51.466;7.444;2023-07-08T01:19:16;6.53;;;3.10;;
38083;SDS011;23894;51.466;7.444;2023-07-08T01:21:31;5.75;;;2.85;;
38083;SDS011;23894;51.466;7.444;2023-07-08T01:23:34;6.38;;;2.90;;
38083;SDS011;23894;51.466;7.444;2023-07-08T01:25:36;4.47;;;2.53;;
38083;SDS011;23894;51.466;7.444;2023-07-08T01:27:38;5.35;;;2.50;;
38083;SDS011;23894;51.466;7.444;2023-07-08T01:29:40;6.30;;;3.05;;
38083;SDS011;23894;51.466;7.444;2023-07-08T01:33:48;8.77;;;2.42;;
38083;SDS011;23894;51.466;7.444;2023-07-08T01:35:51;12.00;;;2.80;;
38083;SDS011;23894;51.466;7.444;2023-07-08T01:37:53;6.78;;;3.10;;
38083;SDS011;23894;51.466;7.444;2023-07-08T01:39:55;4.82;;;2.80;;
38083;SDS011;23894;51.466;7.444;2023-07-08T01:43:57;5.50;;;2.70;;
38083;SDS011;23894;51.466;7.444;2023-07-08T01:45:58;5.47;;;3.05;;
38083;SDS011;23894;51.466;7.444;2023-07-08T01:48:03;5.15;;;2.95;;
38083;SDS011;23894;51.466;7.444;2023-07-08T01:50:05;7.07;;;3.17;;
38083;SDS011;23894;51.466;7.444;2023-07-08T01:52:06;10.63;;;3.25;;
38083;SDS011;23894;51.466;7.444;2023-07-08T01:54:08;6.28;;;2.75;;
38083;SDS011;23894;51.466;7.444;2023-07-08T01:58:09;5.38;;;2.58;;
38083;SDS011;23894;51.466;7.444;2023-07-08T02:02:11;7.20;;;2.90;;
38083;SDS011;23894;51.466;7.444;2023-07-08T02:06:14;5.35;;;2.80;;
38083;SDS011;23894;51.466;7.444;2023-07-08T02:08:15;5.75;;;2.75;;
38083;SDS011;23894;51.466;7.444;2023-07-08T02:12:17;4.65;;;2.45;;
38083;SDS011;23894;51.466;7.444;2023-07-08T02:16:19;7.20;;;2.90;;
38083;SDS011;23894;51.466;7.444;2023-07-08T02:20:21;8.13;;;3.38;;
38083;SDS011;23894;51.466;7.444;2023-07-08T02:22:22;7.28;;;3.28;;
38083;SDS011;23894;51.466;7.444;2023-07-08T02:24:23;8.27;;;3.45;;
38083;SDS011;23894;51.466;7.444;2023-07-08T02:28:26;5.68;;;2.85;;
38083;SDS011;23894;51.466;7.444;2023-07-08T02:32:28;6.22;;;2.70;;
38083;SDS011;23894;51.466;7.444;2023-07-08T02:36:30;5.95;;;2.58;;
38083;SDS011;23894;51.466;7.444;2023-07-08T02:38:31;5.25;;;2.80;;
38083;SDS011;23894;51.466;7.444;2023-07-08T02:42:33;5.82;;;2.80;;
38083;SDS011;23894;51.466;7.444;2023-07-08T02:46:34;7.28;;;2.75;;
38083;SDS011;23894;51.466;7.444;2023-07-08T02:50:36;7.00;;;3.10;;
38083;SDS011;23894;51.466;7.444;2023-07-08T02:54:38;4.80;;;2.33;;
38083;SDS011;23894;51.466;7.444;2023-07-08T02:58:40;7.05;;;2.83;;
38083;SDS011;23894;51.466;7.444;2023-07-08T03:02:42;6.65;;;3.38;;
38083;SDS011;23894;51.466;7.444;2023-07-08T03:06:44;6.18;;;2.95;;
38083;SDS011;23894;51.466;7.444;2023-07-08T03:08:45;5.70;;;3.28;;
38083;SDS011;23894;51.466;7.444;2023-07-08T03:12:47;6.38;;;3.10;;
38083;SDS011;23894;51.466;7.444;2023-07-08T03:16:49;6.90;;;3.25;;
38083;SDS011;23894;51.466;7.444;2023-07-08T03:20:50;6.50;;;3.15;;
38083;SDS011;23894;51.466;7.444;2023-07-08T03:24:52;6.82;;;3.22;;
38083;SDS011;23894;51.466;7.444;2023-07-08T03:28:54;6.05;;;3.28;;
38083;SDS011;23894;51.466;7.444;2023-07-08T03:32:56;6.43;;;2.88;;
38083;SDS011;23894;51.466;7.444;2023-07-08T03:36:58;5.85;;;3.08;;
38083;SDS011;23894;51.466;7.444;2023-07-08T03:41:01;6.80;;;3.20;;
38083;SDS011;23894;51.466;7.444;2023-07-08T03:45:03;6.95;;;2.88;;
38083;SDS011;23894;51.466;7.444;2023-07-08T03:47:04;6.95;;;3.30;;
38083;SDS011;23894;51.466;7.444;2023-07-08T03:51:10;6.05;;;3.38;;
38083;SDS011;23894;51.466;7.444;2023-07-08T03:53:13;8.23;;;3.47;;
38083;SDS011;23894;51.466;7.444;2023-07-08T03:57:15;5.70;;;3.05;;
38083;SDS011;23894;51.466;7.444;2023-07-08T04:01:21;6.53;;;3.03;;
38083;SDS011;23894;51.466;7.444;2023-07-08T04:03:23;6.72;;;3.10;;
38083;SDS011;23894;51.466;7.444;2023-07-08T04:07:25;6.82;;;3.17;;
38083;SDS011;23894;51.466;7.444;2023-07-08T04:11:27;6.25;;;3.00;;
38083;SDS011;23894;51.466;7.444;2023-07-08T04:15:28;6.18;;;2.90;;
38083;SDS011;23894;51.466;7.444;2023-07-08T04:19:30;6.53;;;3.20;;
38083;SDS011;23894;51.466;7.444;2023-07-08T04:23:32;6.30;;;3.47;;
38083;SDS011;23894;51.466;7.444;2023-07-08T04:27:34;7.30;;;3.63;;
38083;SDS011;23894;51.466;7.444;2023-07-08T04:31:36;5.80;;;3.40;;
38083;SDS011;23894;51.466;7.444;2023-07-08T04:35:38;5.93;;;3.45;;
38083;SDS011;23894;51.466;7.444;2023-07-08T04:37:39;6.25;;;3.53;;
38083;SDS011;23894;51.466;7.444;2023-07-08T04:41:41;6.30;;;3.40;;
38083;SDS011;23894;51.466;7.444;2023-07-08T04:43:43;8.77;;;3.55;;
38083;SDS011;23894;51.466;7.444;2023-07-08T04:47:45;6.13;;;3.60;;
38083;SDS011;23894;51.466;7.444;2023-07-08T04:49:46;6.25;;;3.38;;
38083;SDS011;23894;51.466;7.444;2023-07-08T04:53:48;7.45;;;3.35;;
38083;SDS011;23894;51.466;7.444;2023-07-08T04:57:50;7.07;;;3.80;;
38083;SDS011;23894;51.466;7.444;2023-07-08T05:01:52;6.18;;;3.25;;
38083;SDS011;23894;51.466;7.444;2023-07-08T05:03:53;7.20;;;3.40;;
38083;SDS011;23894;51.466;7.444;2023-07-08T05:07:55;9.10;;;3.42;;
38083;SDS011;23894;51.466;7.444;2023-07-08T05:11:57;6.82;;;3.47;;
38083;SDS011;23894;51.466;7.444;2023-07-08T05:15:58;6.50;;;3.70;;
38083;SDS011;23894;51.466;7.444;2023-07-08T05:20:00;6.25;;;3.13;;
38083;SDS011;23894;51.466;7.444;2023-07-08T05:22:03;6.63;;;3.20;;
38083;SDS011;23894;51.466;7.444;2023-07-08T05:26:05;7.82;;;3.70;;
38083;SDS011;23894;51.466;7.444;2023-07-08T05:28:07;7.63;;;3.47;;
38083;SDS011;23894;51.466;7.444;2023-07-08T05:30:11;6.32;;;3.33;;
38083;SDS011;23894;51.466;7.444;2023-07-08T05:32:13;6.82;;;4.05;;
38083;SDS011;23894;51.466;7.444;2023-07-08T05:36:15;5.68;;;3.45;;
38083;SDS011;23894;51.466;7.444;2023-07-08T05:40:17;7.60;;;3.42;;
38083;SDS011;23894;51.466;7.444;2023-07-08T05:44:19;7.43;;;3.42;;
38083;SDS011;23894;51.466;7.444;2023-07-08T05:48:21;7.25;;;3.80;;
38083;SDS011;23894;51.466;7.444;2023-07-08T05:52:22;7.70;;;3.88;;
38083;SDS011;23894;51.466;7.444;2023-07-08T05:56:24;6.38;;;3.75;;
38083;SDS011;23894;51.466;7.444;2023-07-08T06:00:26;7.90;;;3.53;;
38083;SDS011;23894;51.466;7.444;2023-07-08T06:04:28;7.03;;;4.07;;
38083;SDS011;23894;51.466;7.444;2023-07-08T06:06:30;7.93;;;3.63;;
38083;SDS011;23894;51.466;7.444;2023-07-08T06:10:32;7.85;;;3.75;;
38083;SDS011;23894;51.466;7.444;2023-07-08T06:12:33;7.60;;;3.80;;
38083;SDS011;23894;51.466;7.444;2023-07-08T06:16:35;12.73;;;4.20;;
38083;SDS011;23894;51.466;7.444;2023-07-08T06:18:36;6.45;;;3.63;;
38083;SDS011;23894;51.466;7.444;2023-07-08T06:22:38;7.88;;;3.80;;
38083;SDS011;23894;51.466;7.444;2023-07-08T06:26:40;7.82;;;3.63;;
38083;SDS011;23894;51.466;7.444;2023-07-08T06:30:42;6.05;;;3.28;;
38083;SDS011;23894;51.466;7.444;2023-07-08T06:32:43;5.90;;;3.25;;
38083;SDS011;23894;51.466;7.444;2023-07-08T06:36:45;7.95;;;3.70;;
38083;SDS011;23894;51.466;7.444;2023-07-08T06:38:46;7.05;;;4.07;;
38083;SDS011;23894;51.466;7.444;2023-07-08T06:42:48;7.28;;;3.70;;
38083;SDS011;23894;51.466;7.444;2023-07-08T06:44:49;6.30;;;3.63;;
38083;SDS011;23894;51.466;7.444;2023-07-08T06:46:50;6.55;;;3.60;;
38083;SDS011;23894;51.466;7.444;2023-07-08T06:50:54;7.70;;;3.97;;
38083;SDS011;23894;51.466;7.444;2023-07-08T06:52:55;7.60;;;3.72;;
38083;SDS011;23894;51.466;7.444;2023-07-08T06:56:56;7.57;;;3.88;;
38083;SDS011;23894;51.466;7.444;2023-07-08T07:00:58;8.18;;;3.55;;
38083;SDS011;23894;51.466;7.444;2023-07-08T07:02:59;6.60;;;3.60;;
38083;SDS011;23894;51.466;7.444;2023-07-08T07:05:01;8.23;;;3.90;;
38083;SDS011;23894;51.466;7.444;2023-07-08T07:07:02;10.20;;;4.07;;
38083;SDS011;23894;51.466;7.444;2023-07-08T07:11:04;8.50;;;4.13;;
38083;SDS011;23894;51.466;7.444;2023-07-08T07:13:05;7.65;;;3.75;;
38083;SDS011;23894;51.466;7.444;2023-07-08T07:15:06;7.88;;;4.10;;
38083;SDS011;23894;51.466;7.444;2023-07-08T07:17:07;8.15;;;4.30;;
38083;SDS011;23894;51.466;7.444;2023-07-08T07:19:08;7.82;;;4.35;;
38083;SDS011;23894;51.466;7.444;2023-07-08T07:21:09;6.70;;;3.85;;
38083;SDS011;23894;51.466;7.444;2023-07-08T07:23:10;8.50;;;4.53;;
38083;SDS011;23894;51.466;7.444;2023-07-08T07:25:11;7.60;;;4.30;;
38083;SDS011;23894;51.466;7.444;2023-07-08T07:27:11;8.02;;;4.00;;
38083;SDS011;23894;51.466;7.444;2023-07-08T07:29:15;8.60;;;4.63;;
38083;SDS011;23894;51.466;7.444;2023-07-08T07:31:16;8.05;;;4.57;;
38083;SDS011;23894;51.466;7.444;2023-07-08T07:33:17;9.10;;;5.18;;
38083;SDS011;23894;51.466;7.444;2023-07-08T07:35:18;8.95;;;4.38;;
38083;SDS011;23894;51.466;7.444;2023-07-08T07:37:20;7.13;;;4.50;;
38083;SDS011;23894;51.466;7.444;2023-07-08T07:39:21;7.97;;;4.20;;
38083;SDS011;23894;51.466;7.444;2023-07-08T07:41:22;9.27;;;4.40;;
38083;SDS011;23894;51.466;7.444;2023-07-08T07:43:23;9.50;;;4.78;;
38083;SDS011;23894;51.466;7.444;2023-07-08T07:45:24;11.35;;;4.20;;
38083;SDS011;23894;51.466;7.444;2023-07-08T07:47:25;11.13;;;4.80;;
38083;SDS011;23894;51.466;7.444;2023-07-08T07:49:26;11.73;;;4.20;;
38083;SDS011;23894;51.466;7.444;2023-07-08T07:51:27;9.82;;;4.50;;
38083;SDS011;23894;51.466;7.444;2023-07-08T07:53:28;12.35;;;4.68;;
38083;SDS011;23894;51.466;7.444;2023-07-08T07:55:29;7.43;;;4.38;;
38083;SDS011;23894;51.466;7.444;2023-07-08T07:57:30;8.32;;;4.25;;
38083;SDS011;23894;51.466;7.444;2023-07-08T07:59:31;11.38;;;4.93;;
38083;SDS011;23894;51.466;7.444;2023-07-08T08:01:32;10.50;;;4.70;;
38083;SDS011;23894;51.466;7.444;2023-07-08T08:03:33;8.15;;;4.68;;
38083;SDS011;23894;51.466;7.444;2023-07-08T08:05:34;8.60;;;4.50;;
38083;SDS011;23894;51.466;7.444;2023-07-08T08:07:35;8.70;;;5.05;;
38083;SDS011;23894;51.466;7.444;2023-07-08T08:09:36;10.07;;;4.97;;
38083;SDS011;23894;51.466;7.444;2023-07-08T08:11:38;9.13;;;5.30;;
38083;SDS011;23894;51.466;7.444;2023-07-08T08:13:38;8.18;;;4.28;;
38083;SDS011;23894;51.466;7.444;2023-07-08T08:15:39;8.55;;;4.80;;
38083;SDS011;23894;51.466;7.444;2023-07-08T08:17:40;8.98;;;5.22;;
38083;SDS011;23894;51.466;7.444;2023-07-08T08:19:42;9.43;;;4.72;;
38083;SDS011;23894;51.466;7.444;2023-07-08T08:21:43;10.55;;;4.70;;
38083;SDS011;23894;51.466;7.444;2023-07-08T08:23:44;8.32;;;4.78;;
38083;SDS011;23894;51.466;7.444;2023-07-08T08:25:45;8.82;;;5.10;;
38083;SDS011;23894;51.466;7.444;2023-07-08T08:27:46;8.52;;;5.50;;
38083;SDS011;23894;51.466;7.444;2023-07-08T08:29:47;10.13;;;5.35;;
38083;SDS011;23894;51.466;7.444;2023-07-08T08:31:48;8.02;;;4.43;;
38083;SDS011;23894;51.466;7.444;2023-07-08T08:33:53;9.13;;;5.00;;
38083;SDS011;23894;51.466;7.444;2023-07-08T08:35:55;8.38;;;5.30;;
38083;SDS011;23894;51.466;7.444;2023-07-08T08:37:56;9.52;;;4.93;;
38083;SDS011;23894;51.466;7.444;2023-07-08T08:39:57;8.95;;;4.68;;
38083;SDS011;23894;51.466;7.444;2023-07-08T08:41:58;12.55;;;5.18;;
38083;SDS011;23894;51.466;7.444;2023-07-08T08:43:59;9.77;;;5.38;;
38083;SDS011;23894;51.466;7.444;2023-07-08T08:46:04;8.88;;;5.07;;
38083;SDS011;23894;51.466;7.444;2023-07-08T08:48:06;10.50;;;5.85;;
38083;SDS011;23894;51.466;7.444;2023-07-08T08:50:20;9.48;;;4.85;;
38083;SDS011;23894;51.466;7.444;2023-07-08T08:52:24;10.02;;;4.75;;
38083;SDS011;23894;51.466;7.444;2023-07-08T08:54:25;8.73;;;5.60;;
38083;SDS011;23894;51.466;7.444;2023-07-08T09:01:16;10.05;;;5.28;;
38083;SDS011;23894;51.466;7.444;2023-07-08T09:03:27;10.45;;;5.38;;
38083;SDS011;23894;51.466;7.444;2023-07-08T09:05:31;12.38;;;5.50;;
38083;SDS011;23894;51.466;7.444;2023-07-08T09:07:34;14.93;;;4.97;;
38083;SDS011;23894;51.466;7.444;2023-07-08T09:11:42;10.27;;;5.10;;
38083;SDS011;23894;51.466;7.444;2023-07-08T09:13:46;8.25;;;5.20;;
38083;SDS011;23894;51.466;7.444;2023-07-08T09:15:48;10.05;;;5.38;;
38083;SDS011;23894;51.466;7.444;2023-07-08T09:17:49;10.00;;;5.63;;
38083;SDS011;23894;51.466;7.444;2023-07-08T09:22:15;12.18;;;5.35;;
38083;SDS011;23894;51.466;7.444;2023-07-08T09:24:19;9.82;;;4.90;;
38083;SDS011;23894;51.466;7.444;2023-07-08T09:26:22;10.02;;;5.05;;
38083;SDS011;23894;51.466;7.444;2023-07-08T09:28:41;9.38;;;5.63;;
38083;SDS011;23894;51.466;7.444;2023-07-08T09:30:46;11.57;;;6.28;;
38083;SDS011;23894;51.466;7.444;2023-07-08T09:32:48;12.23;;;5.45;;
38083;SDS011;23894;51.466;7.444;2023-07-08T09:34:50;11.93;;;6.03;;
38083;SDS011;23894;51.466;7.444;2023-07-08T09:36:51;9.80;;;4.70;;
38083;SDS011;23894;51.466;7.444;2023-07-08T09:38:53;9.93;;;5.55;;
38083;SDS011;23894;51.466;7.444;2023-07-08T09:40:54;9.80;;;4.72;;
38083;SDS011;23894;51.466;7.444;2023-07-08T09:42:59;8.60;;;5.13;;
38083;SDS011;23894;51.466;7.444;2023-07-08T09:45:08;11.98;;;5.60;;
38083;SDS011;23894;51.466;7.444;2023-07-08T09:47:26;10.57;;;4.78;;
38083;SDS011;23894;51.466;7.444;2023-07-08T09:49:31;9.48;;;4.93;;
38083;SDS011;23894;51.466;7.444;2023-07-08T09:51:32;9.38;;;5.32;;
38083;SDS011;23894;51.466;7.444;2023-07-08T09:53:33;10.55;;;5.05;;
38083;SDS011;23894;51.466;7.444;2023-07-08T09:55:34;8.20;;;4.68;;
38083;SDS011;23894;51.466;7.444;2023-07-08T09:57:36;12.40;;;5.35;;
38083;SDS011;23894;51.466;7.444;2023-07-08T09:59:47;10.32;;;4.65;;
38083;SDS011;23894;51.466;7.444;2023-07-08T10:01:48;9.45;;;5.25;;
38083;SDS011;23894;51.466;7.444;2023-07-08T10:03:49;8.38;;;4.85;;
38083;SDS011;23894;51.466;7.444;2023-07-08T10:05:51;9.38;;;4.93;;
38083;SDS011;23894;51.466;7.444;2023-07-08T10:07:53;8.68;;;4.80;;
38083;SDS011;23894;51.466;7.444;2023-07-08T10:09:54;10.10;;;4.47;;
38083;SDS011;23894;51.466;7.444;2023-07-08T10:11:59;9.40;;;4.88;;
38083;SDS011;23894;51.466;7.444;2023-07-08T10:14:03;7.10;;;4.38;;
38083;SDS011;23894;51.466;7.444;2023-07-08T10:18:16;6.50;;;4.20;;
38083;SDS011;23894;51.466;7.444;2023-07-08T10:20:17;8.05;;;4.47;;
38083;SDS011;23894;51.466;7.444;2023-07-08T10:24:42;6.88;;;3.70;;
38083;SDS011;23894;51.466;7.444;2023-07-08T10:29:09;8.05;;;4.20;;
38083;SDS011;23894;51.466;7.444;2023-07-08T10:31:31;8.32;;;3.85;;
38083;SDS011;23894;51.466;7.444;2023-07-08T10:33:36;8.10;;;4.50;;
38083;SDS011;23894;51.466;7.444;2023-07-08T10:35:45;8.52;;;4.25;;
38083;SDS011;23894;51.466;7.444;2023-07-08T10:42:21;8.80;;;4.43;;
38083;SDS011;23894;51.466;7.444;2023-07-08T10:44:26;7.53;;;4.03;;
38083;SDS011;23894;51.466;7.444;2023-07-08T10:48:42;7.90;;;4.47;;
38083;SDS011;23894;51.466;7.444;2023-07-08T10:50:53;8.38;;;4.38;;
38083;SDS011;23894;51.466;7.444;2023-07-08T10:59:09;7.45;;;4.60;;
38083;SDS011;23894;51.466;7.444;2023-07-08T11:01:20;7.53;;;3.83;;
38083;SDS011;23894;51.466;7.444;2023-07-08T11:05:31;7.40;;;4.10;;
38083;SDS011;23894;51.466;7.444;2023-07-08T11:07:43;7.63;;;3.92;;
38083;SDS011;23894;51.466;7.444;2023-07-08T11:11:53;7.85;;;4.03;;
38083;SDS011;23894;51.466;7.444;2023-07-08T11:14:04;9.23;;;4.30;;
38083;SDS011;23894;51.466;7.444;2023-07-08T11:16:10;6.90;;;3.45;;
38083;SDS011;23894;51.466;7.444;2023-07-08T11:18:17;11.27;;;4.43;;
38083;SDS011;23894;51.466;7.444;2023-07-08T11:20:24;7.07;;;4.00;;
38083;SDS011;23894;51.466;7.444;2023-07-08T11:22:26;6.45;;;3.85;;
38083;SDS011;23894;51.466;7.444;2023-07-08T11:24:30;7.03;;;3.33;;
38083;SDS011;23894;51.466;7.444;2023-07-08T11:28:35;7.25;;;4.00;;
38083;SDS011;23894;51.466;7.444;2023-07-08T11:30:36;8.48;;;3.80;;
38083;SDS011;23894;51.466;7.444;2023-07-08T11:32:42;6.47;;;3.67;;
38083;SDS011;23894;51.466;7.444;2023-07-08T11:34:44;6.70;;;3.35;;
38083;SDS011;23894;51.466;7.444;2023-07-08T11:36:47;6.57;;;3.80;;
38083;SDS011;23894;51.466;7.444;2023-07-08T11:38:50;7.85;;;4.05;;
38083;SDS011;23894;51.466;7.444;2023-07-08T11:40:52;6.75;;;3.30;;
38083;SDS011;23894;51.466;7.444;2023-07-08T11:42:59;6.78;;;3.80;;
38083;SDS011;23894;51.466;7.444;2023-07-08T11:45:01;7.57;;;3.85;;
38083;SDS011;23894;51.466;7.444;2023-07-08T11:47:13;8.25;;;3.78;;
38083;SDS011;23894;51.466;7.444;2023-07-08T11:49:16;6.88;;;3.28;;
38083;SDS011;23894;51.466;7.444;2023-07-08T11:51:18;6.85;;;3.97;;
38083;SDS011;23894;51.466;7.444;2023-07-08T11:57:37;9.18;;;3.78;;
38083;SDS011;23894;51.466;7.444;2023-07-08T11:59:40;8.48;;;3.90;;
38083;SDS011;23894;51.466;7.444;2023-07-08T12:03:54;6.60;;;3.72;;
38083;SDS011;23894;51.466;7.444;2023-07-08T12:05:56;7.75;;;4.07;;
38083;SDS011;23894;51.466;7.444;2023-07-08T12:07:57;6.30;;;3.30;;
38083;SDS011;23894;51.466;7.444;2023-07-08T12:10:16;8.60;;;3.50;;
38083;SDS011;23894;51.466;7.444;2023-07-08T12:12:22;8.98;;;3.97;;
38083;SDS011;23894;51.466;7.444;2023-07-08T12:14:24;7.03;;;3.50;;
38083;SDS011;23894;51.466;7.444;2023-07-08T12:16:26;9.65;;;3.75;;
38083;SDS011;23894;51.466;7.444;2023-07-08T12:18:30;6.55;;;3.30;;
38083;SDS011;23894;51.466;7.444;2023-07-08T12:20:34;7.88;;;3.78;;
38083;SDS011;23894;51.466;7.444;2023-07-08T12:22:35;7.10;;;3.83;;
38083;SDS011;23894;51.466;7.444;2023-07-08T12:24:39;7.20;;;3.67;;
38083;SDS011;23894;51.466;7.444;2023-07-08T12:26:41;6.50;;;3.47;;
38083;SDS011;23894;51.466;7.444;2023-07-08T12:28:42;8.52;;;3.60;;
38083;SDS011;23894;51.466;7.444;2023-07-08T12:30:44;7.13;;;3.55;;
38083;SDS011;23894;51.466;7.444;2023-07-08T12:32:46;6.93;;;3.38;;
38083;SDS011;23894;51.466;7.444;2023-07-08T12:34:47;9.27;;;4.20;;
38083;SDS011;23894;51.466;7.444;2023-07-08T12:36:48;5.93;;;3.20;;
38083;SDS011;23894;51.466;7.444;2023-07-08T12:38:50;7.45;;;3.95;;
38083;SDS011;23894;51.466;7.444;2023-07-08T12:40:52;7.15;;;3.22;;
38083;SDS011;23894;51.466;7.444;2023-07-08T12:42:53;6.25;;;3.80;;
38083;SDS011;23894;51.466;7.444;2023-07-08T12:44:54;10.23;;;3.55;;
38083;SDS011;23894;51.466;7.444;2023-07-08T12:46:55;6.13;;;3.33;;
38083;SDS011;23894;51.466;7.444;2023-07-08T12:48:56;8.95;;;4.03;;
38083;SDS011;23894;51.466;7.444;2023-07-08T12:50:57;8.48;;;4.05;;
38083;SDS011;23894;51.466;7.444;2023-07-08T12:52:58;6.40;;;3.25;;
38083;SDS011;23894;51.466;7.444;2023-07-08T12:55:03;7.03;;;3.30;;
38083;SDS011;23894;51.466;7.444;2023-07-08T12:57:05;8.10;;;3.65;;
38083;SDS011;23894;51.466;7.444;2023-07-08T12:59:06;7.95;;;3.95;;
38083;SDS011;23894;51.466;7.444;2023-07-08T13:01:10;10.07;;;3.65;;
38083;SDS011;23894;51.466;7.444;2023-07-08T13:03:17;6.55;;;3.15;;
38083;SDS011;23894;51.466;7.444;2023-07-08T13:05:19;8.80;;;3.33;;
38083;SDS011;23894;51.466;7.444;2023-07-08T13:07:32;8.27;;;3.42;;
38083;SDS011;23894;51.466;7.444;2023-07-08T13:11:35;6.93;;;3.03;;
38083;SDS011;23894;51.466;7.444;2023-07-08T13:13:39;7.15;;;3.33;;
38083;SDS011;23894;51.466;7.444;2023-07-08T13:15:41;5.93;;;3.35;;
38083;SDS011;23894;51.466;7.444;2023-07-08T13:17:43;7.20;;;3.40;;
38083;SDS011;23894;51.466;7.444;2023-07-08T13:19:44;7.55;;;3.58;;
38083;SDS011;23894;51.466;7.444;2023-07-08T13:21:45;7.35;;;3.70;;
38083;SDS011;23894;51.466;7.444;2023-07-08T13:23:47;7.15;;;3.65;;
38083;SDS011;23894;51.466;7.444;2023-07-08T13:25:51;6.70;;;3.55;;
38083;SDS011;23894;51.466;7.444;2023-07-08T13:28:00;8.10;;;3.70;;
38083;SDS011;23894;51.466;7.444;2023-07-08T13:30:18;7.47;;;3.13;;
38083;SDS011;23894;51.466;7.444;2023-07-08T13:32:20;7.55;;;3.58;;
38083;SDS011;23894;51.466;7.444;2023-07-08T13:34:23;7.38;;;3.58;;
38083;SDS011;23894;51.466;7.444;2023-07-08T13:36:27;9.05;;;3.50;;
38083;SDS011;23894;51.466;7.444;2023-07-08T13:38:31;6.63;;;3.45;;
38083;SDS011;23894;51.466;7.444;2023-07-08T13:40:33;7.40;;;3.90;;
38083;SDS011;23894;51.466;7.444;2023-07-08T13:42:34;7.45;;;3.03;;
38083;SDS011;23894;51.466;7.444;2023-07-08T13:44:41;7.65;;;3.17;;
38083;SDS011;23894;51.466;7.444;2023-07-08T13:48:52;8.50;;;3.17;;
38083;SDS011;23894;51.466;7.444;2023-07-08T13:50:55;8.82;;;3.38;;
38083;SDS011;23894;51.466;7.444;2023-07-08T13:52:57;7.85;;;3.53;;
38083;SDS011;23894;51.466;7.444;2023-07-08T13:55:01;7.40;;;4.03;;
38083;SDS011;23894;51.466;7.444;2023-07-08T13:57:03;7.28;;;3.40;;
38083;SDS011;23894;51.466;7.444;2023-07-08T13:59:06;9.05;;;3.50;;
38083;SDS011;23894;51.466;7.444;2023-07-08T14:01:08;6.68;;;3.20;;
38083;SDS011;23894;51.466;7.444;2023-07-08T14:03:10;8.18;;;3.90;;
38083;SDS011;23894;51.466;7.444;2023-07-08T14:05:12;8.82;;;3.92;;
38083;SDS011;23894;51.466;7.444;2023-07-08T14:07:24;8.57;;;3.35;;
38083;SDS011;23894;51.466;7.444;2023-07-08T14:09:25;6.57;;;3.60;;
38083;SDS011;23894;51.466;7.444;2023-07-08T14:11:26;8.65;;;3.45;;
38083;SDS011;23894;51.466;7.444;2023-07-08T14:13:27;7.30;;;3.88;;
38083;SDS011;23894;51.466;7.444;2023-07-08T14:15:28;6.18;;;3.20;;
38083;SDS011;23894;51.466;7.444;2023-07-08T14:17:31;6.20;;;3.15;;
38083;SDS011;23894;51.466;7.444;2023-07-08T14:19:34;8.70;;;3.67;;
38083;SDS011;23894;51.466;7.444;2023-07-08T14:21:36;6.85;;;3.28;;
38083;SDS011;23894;51.466;7.444;2023-07-08T14:23:37;5.90;;;2.97;;
38083;SDS011;23894;51.466;7.444;2023-07-08T14:25:38;8.18;;;3.53;;
38083;SDS011;23894;51.466;7.444;2023-07-08T14:27:40;7.85;;;3.67;;
38083;SDS011;23894;51.466;7.444;2023-07-08T14:29:41;6.68;;;3.40;;
38083;SDS011;23894;51.466;7.444;2023-07-08T14:31:42;8.30;;;4.45;;
38083;SDS011;23894;51.466;7.444;2023-07-08T14:33:43;6.18;;;3.50;;
38083;SDS011;23894;51.466;7.444;2023-07-08T14:35:44;7.00;;;3.22;;
38083;SDS011;23894;51.466;7.444;2023-07-08T14:37:45;8.23;;;3.70;;
38083;SDS011;23894;51.466;7.444;2023-07-08T14:39:46;8.00;;;3.88;;
38083;SDS011;23894;51.466;7.444;2023-07-08T14:41:48;7.55;;;3.60;;
38083;SDS011;23894;51.466;7.444;2023-07-08T14:43:49;8.23;;;3.53;;
38083;SDS011;23894;51.466;7.444;2023-07-08T14:45:51;7.50;;;3.55;;
38083;SDS011;23894;51.466;7.444;2023-07-08T14:47:52;7.35;;;3.55;;
38083;SDS011;23894;51.466;7.444;2023-07-08T14:49:53;7.20;;;3.70;;
38083;SDS011;23894;51.466;7.444;2023-07-08T14:51:54;9.02;;;3.55;;
38083;SDS011;23894;51.466;7.444;2023-07-08T14:53:55;6.93;;;3.33;;
38083;SDS011;23894;51.466;7.444;2023-07-08T14:55:56;8.07;;;3.83;;
38083;SDS011;23894;51.466;7.444;2023-07-08T14:57:58;6.70;;;3.53;;
38083;SDS011;23894;51.466;7.444;2023-07-08T14:59:59;8.15;;;3.95;;
38083;SDS011;23894;51.466;7.444;2023-07-08T15:02:02;6.18;;;3.05;;
38083;SDS011;23894;51.466;7.444;2023-07-08T15:04:08;6.40;;;3.63;;
38083;SDS011;23894;51.466;7.444;2023-07-08T15:06:10;6.90;;;3.45;;
38083;SDS011;23894;51.466;7.444;2023-07-08T15:08:11;8.77;;;4.47;;
38083;SDS011;23894;51.466;7.444;2023-07-08T15:10:13;9.02;;;4.45;;
38083;SDS011;23894;51.466;7.444;2023-07-08T15:12:14;9.35;;;3.90;;
38083;SDS011;23894;51.466;7.444;2023-07-08T15:16:19;7.55;;;4.07;;
38083;SDS011;23894;51.466;7.444;2023-07-08T15:18:20;9.65;;;4.68;;
38083;SDS011;23894;51.466;7.444;2023-07-08T15:20:22;7.28;;;3.63;;
38083;SDS011;23894;51.466;7.444;2023-07-08T15:22:22;9.43;;;4.18;;
38083;SDS011;23894;51.466;7.444;2023-07-08T15:24:23;7.18;;;3.83;;
38083;SDS011;23894;51.466;7.444;2023-07-08T15:26:24;8.77;;;4.45;;
38083;SDS011;23894;51.466;7.444;2023-07-08T15:28:39;6.90;;;3.33;;
38083;SDS011;23894;51.466;7.444;2023-07-08T15:30:41;7.88;;;4.05;;
38083;SDS011;23894;51.466;7.444;2023-07-08T15:32:43;7.13;;;3.50;;
38083;SDS011;23894;51.466;7.444;2023-07-08T15:34:44;8.20;;;4.25;;
38083;SDS011;23894;51.466;7.444;2023-07-08T15:36:45;9.32;;;3.92;;
38083;SDS011;23894;51.466;7.444;2023-07-08T15:38:46;8.38;;;4.05;;
38083;SDS011;23894;51.466;7.444;2023-07-08T15:40:47;8.15;;;3.78;;
38083;SDS011;23894;51.466;7.444;2023-07-08T15:42:49;8.82;;;4.55;;
38083;SDS011;23894;51.466;7.444;2023-07-08T15:44:50;8.63;;;4.45;;